TimeMDT,TemperatureF,Dew PointF,Humidity,Sea Level PressureIn,VisibilityMPH,Wind Direction,Wind SpeedMPH,Gust SpeedMPH,PrecipitationIn,Events,Conditions,WindDirDegrees,DateUTC
12:53 AM,43.0,21.0,42,30.02,10.0,WSW,4.6,-,N/A,,Clear,250,2013-03-29 06:53:00
1:53 AM,42.1,21.9,45,30.00,10.0,WSW,6.9,-,N/A,,Mostly Cloudy,240,2013-03-29 07:53:00
2:53 AM,44.1,19.9,38,29.99,10.0,Calm,Calm,-,N/A,,Clear,0,2013-03-29 08:53:00
3:53 AM,44.1,21.0,40,29.98,10.0,SSW,6.9,-,N/A,,Partly Cloudy,200,2013-03-29 09:53:00
4:53 AM,44.1,19.9,38,29.97,10.0,North,3.5,-,N/A,,Clear,360,2013-03-29 10:53:00
5:53 AM,46.0,19.9,35,29.96,10.0,WSW,5.8,-,N/A,,Overcast,240,2013-03-29 11:53:00
6:53 AM,42.1,23.0,47,29.99,10.0,West,6.9,-,N/A,,Partly Cloudy,280,2013-03-29 12:53:00
7:53 AM,44.1,24.1,45,30.02,10.0,Calm,Calm,-,N/A,,Scattered Clouds,0,2013-03-29 13:53:00
8:53 AM,48.0,23.0,37,30.04,10.0,NNW,11.5,-,N/A,,Partly Cloudy,340,2013-03-29 14:53:00
9:53 AM,51.1,24.1,35,30.04,10.0,North,9.2,-,N/A,,Clear,360,2013-03-29 15:53:00
10:53 AM,54.0,24.1,31,30.03,10.0,NNW,15.0,24.2,N/A,,Clear,340,2013-03-29 16:53:00
11:53 AM,54.0,28.0,37,30.03,10.0,NNW,18.4,27.6,N/A,,Clear,340,2013-03-29 17:53:00
12:53 PM,57.0,28.0,33,30.01,10.0,North,13.8,25.3,N/A,,Clear,360,2013-03-29 18:53:00
1:53 PM,55.9,27.0,33,30.02,10.0,NNW,10.4,-,N/A,,Mostly Cloudy,330,2013-03-29 19:53:00
2:53 PM,55.0,28.0,35,30.01,10.0,North,13.8,24.2,N/A,,Overcast,350,2013-03-29 20:53:00
3:53 PM,54.0,33.1,45,30.03,10.0,North,11.5,23.0,N/A,,Overcast,360,2013-03-29 21:53:00
4:53 PM,54.0,33.1,45,30.02,10.0,North,11.5,-,N/A,,Scattered Clouds,350,2013-03-29 22:53:00
5:53 PM,52.0,32.0,47,30.03,10.0,NNW,6.9,-,N/A,,Mostly Cloudy,330,2013-03-29 23:53:00
6:53 PM,51.1,32.0,48,30.04,10.0,NNW,5.8,-,N/A,,Clear,330,2013-03-30 00:53:00
7:53 PM,43.0,30.9,62,30.06,10.0,WNW,8.1,-,N/A,,Clear,300,2013-03-30 01:53:00
8:53 PM,44.1,34.0,68,30.09,10.0,NW,21.9,29.9,N/A,,Scattered Clouds,320,2013-03-30 02:53:00
9:53 PM,43.0,36.0,76,30.11,10.0,NNW,19.6,40.3,N/A,,Overcast,330,2013-03-30 03:53:00
10:53 PM,39.9,35.1,83,30.10,10.0,NW,9.2,-,0.00,,Overcast,320,2013-03-30 04:53:00
11:53 PM,43.0,34.0,71,30.08,10.0,WSW,10.4,-,N/A,,Overcast,250,2013-03-30 05:53:00